createdAt,value
2023-03-17T00:14:59.326Z,100.00
2023-03-17T00:30:01.030Z,100.00
2023-03-17T00:45:02.674Z,100.00
2023-03-17T01:00:06.966Z,100.00
2023-03-17T01:15:09.997Z,100.00
2023-03-17T01:30:20.854Z,100.00
2023-03-17T01:46:00.046Z,100.00
2023-03-17T02:01:01.781Z,100.00
2023-03-17T02:16:03.954Z,100.00
2023-03-17T02:31:05.889Z,100.00
2023-03-17T02:46:07.688Z,100.00
2023-03-17T03:01:09.858Z,100.00
2023-03-17T03:16:11.851Z,100.00
2023-03-17T03:31:14.041Z,100.00
2023-03-17T03:46:15.908Z,100.00
2023-03-17T04:01:18.108Z,100.00
2023-03-17T04:16:19.775Z,100.00
2023-03-17T04:31:22.094Z,100.00
2023-03-17T04:46:23.766Z,100.00
2023-03-17T05:01:26.456Z,100.00
2023-03-17T05:16:28.402Z,100.00
2023-03-17T05:31:31.133Z,100.00
2023-03-17T05:46:32.924Z,100.00
2023-03-17T06:01:34.633Z,100.00
2023-03-17T06:16:36.856Z,100.00
2023-03-17T06:31:39.897Z,100.00
2023-03-17T06:46:41.646Z,100.00
2023-03-17T07:01:43.331Z,100.00
2023-03-17T07:16:45.373Z,100.00
2023-03-17T07:31:47.285Z,100.00
2023-03-17T07:46:49.621Z,100.00
2023-03-17T08:01:51.782Z,100.00
2023-03-17T08:16:54.291Z,100.00
2023-03-17T08:31:56.926Z,100.00
2023-03-17T08:46:58.624Z,100.00
2023-03-17T09:02:02.112Z,100.00
2023-03-17T09:17:05.870Z,100.00
2023-03-17T09:32:08.747Z,100.00
2023-03-17T09:47:13.942Z,100.00
2023-03-17T10:02:32.019Z,100.00
2023-03-17T10:17:41.614Z,100.00
2023-03-17T10:32:44.697Z,100.00
2023-03-17T10:47:50.229Z,98.58
2023-03-17T11:02:59.507Z,97.11
2023-03-17T11:18:04.582Z,95.91
2023-03-17T11:33:09.285Z,91.36
2023-03-17T11:48:22.795Z,89.40
2023-03-17T12:03:56.522Z,93.91
2023-03-17T12:19:21.391Z,92.08
2023-03-17T12:34:44.712Z,87.83
2023-03-17T12:50:10.896Z,88.07
2023-03-17T13:05:16.719Z,85.78
2023-03-17T13:20:20.653Z,78.86
2023-03-17T13:35:58.662Z,77.66
2023-03-17T13:51:34.276Z,77.91
2023-03-17T14:06:38.570Z,78.64
2023-03-17T14:21:40.806Z,79.61
2023-03-17T14:36:42.876Z,83.07
2023-03-17T14:51:45.431Z,81.17
2023-03-17T15:06:58.612Z,82.15
2023-03-17T15:22:06.168Z,80.74
2023-03-17T15:37:18.590Z,80.46
2023-03-17T15:52:26.101Z,79.77
2023-03-17T16:07:28.454Z,80.08
2023-03-17T16:22:42.130Z,79.11
2023-03-17T16:37:44.740Z,80.09
2023-03-17T16:52:46.645Z,81.98
2023-03-17T17:07:49.234Z,81.60
2023-03-17T17:22:51.427Z,80.20
2023-03-17T17:37:53.975Z,82.32
2023-03-17T17:53:01.728Z,80.42
2023-03-17T18:08:04.536Z,83.38
2023-03-17T18:23:06.852Z,94.96
2023-03-17T18:38:08.772Z,93.23
2023-03-17T18:53:10.423Z,95.51
2023-03-17T19:08:13.946Z,90.90
2023-03-17T19:23:15.733Z,90.65
2023-03-17T19:38:17.856Z,90.55
2023-03-17T19:53:19.595Z,90.93
2023-03-17T20:08:22.630Z,95.00
2023-03-17T20:23:25.287Z,94.01
2023-03-17T20:38:27.340Z,93.36
2023-03-17T20:53:29.872Z,92.96
2023-03-17T21:08:32.195Z,94.47
2023-03-17T21:23:33.978Z,99.60
2023-03-17T21:38:35.832Z,100.00
2023-03-17T21:53:37.735Z,97.99
2023-03-17T22:08:39.721Z,99.99
2023-03-17T22:23:42.412Z,100.00
2023-03-17T22:38:46.111Z,100.00
2023-03-17T22:53:48.524Z,100.00
2023-03-17T23:08:51.065Z,100.00
2023-03-17T23:23:52.621Z,100.00
2023-03-17T23:38:54.812Z,100.00
2023-03-17T23:53:56.679Z,100.00
